Williamsville, Virginia
Current Conditions -  °F | °C
As of 12:15 AM on Thursday 23 Oct 2014 (Local Time) from KHSP Reporting Station
Overcast Overcast  
Wind Chill: 30°   Ceiling: 800
Heat Index: 39°   Visibility: 10mi
Dew Point: 37°   Wind: 18mph
Humidity: 92%   Direction: 300°WNW
Pressure: 30.04"   Gusts: 25mph
Location:  38.2°N, 79.57°W
Report Text: KHSP 230415Z AUTO 30016G22KT 10SM OVC008 04/03 A3004 RMK AO2 T00410029
Loading
Personal Weather Stations






























Interactive Weather Map
Tropical Storm Tracking
New forecast layout! Learn more

10-Day Weather Forecast

Advertisements
Track Severe Weather on mobile